Time;durP1;ratioP1;P1;durP2;ratioP2;P2;SDS_P1;SDS_P2;PMS_P1;PMS_P2;Temp;Humidity;BMP_temperature;BMP_pressure;BME280_temperature;BME280_humidity;BME280_pressure;Samples;Min_cycle;Max_cycle;Signal;HPM_P1;HPM_P2
2022/12/06 00:01:46;;;;;;;12.10;10.87;;;;;;;0.98;100.00;97199.28;5035856;28;20671;-70
2022/12/06 00:04:16;;;;;;;13.03;11.67;;;;;;;0.98;100.00;97194.06;5002577;28;20738;-71
2022/12/06 00:06:46;;;;;;;13.07;11.67;;;;;;;0.98;100.00;97187.06;5026374;28;20235;-70
2022/12/06 00:09:18;;;;;;;15.27;12.27;;;;;;;1.03;100.00;97189.31;5024860;28;20393;-72
2022/12/06 00:11:46;;;;;;;12.30;11.10;;;;;;;0.96;100.00;97181.13;5022727;28;20582;-67
2022/12/06 00:14:15;;;;;;;12.83;11.53;;;;;;;1.06;100.00;97176.00;4963582;28;20850;-67
2022/12/06 00:16:43;;;;;;;12.33;11.07;;;;;;;1.02;100.00;97185.03;5030752;28;20611;-69
2022/12/06 00:19:12;;;;;;;12.30;11.10;;;;;;;1.05;100.00;97182.19;5032702;28;20405;-70
2022/12/06 00:21:42;;;;;;;12.57;11.27;;;;;;;1.05;100.00;97190.00;4982835;28;20544;-70
2022/12/06 00:24:12;;;;;;;12.63;11.30;;;;;;;1.05;100.00;97184.78;5024008;28;20876;-70
2022/12/06 00:26:42;;;;;;;13.53;12.10;;;;;;;0.99;100.00;97186.09;5030381;28;20223;-69
2022/12/06 00:29:12;;;;;;;13.77;12.33;;;;;;;0.86;100.00;97181.03;5000902;28;20654;-71
2022/12/06 00:31:40;;;;;;;12.67;11.37;;;;;;;0.85;100.00;97183.78;4972758;28;20234;-70
2022/12/06 00:34:08;;;;;;;14.57;12.27;;;;;;;0.77;100.00;97180.97;5026830;28;20274;-70
2022/12/06 00:36:37;;;;;;;13.53;12.20;;;;;;;0.76;100.00;97174.91;5003373;28;20236;-70
2022/12/06 00:39:10;;;;;;;13.33;11.73;;;;;;;0.85;100.00;97170.75;5028744;28;20231;-70
2022/12/06 00:41:38;;;;;;;14.87;13.37;;;;;;;0.84;100.00;97175.13;5030845;28;20559;-69
2022/12/06 00:44:06;;;;;;;13.80;12.40;;;;;;;0.89;100.00;97169.53;5004052;28;20311;-69
2022/12/06 00:46:35;;;;;;;13.13;11.80;;;;;;;0.97;100.00;97176.75;4975639;28;20238;-70
2022/12/06 00:49:04;;;;;;;12.77;11.50;;;;;;;0.95;100.00;97166.44;5027187;28;20210;-68
2022/12/06 00:51:33;;;;;;;13.40;11.70;;;;;;;0.92;100.00;97174.50;4994850;28;20794;-70
2022/12/06 00:54:01;;;;;;;13.77;12.37;;;;;;;0.89;100.00;97171.31;5027686;28;20203;-69
2022/12/06 00:56:30;;;;;;;15.37;12.23;;;;;;;0.73;100.00;97175.16;5028041;28;20441;-67
2022/12/06 00:58:58;;;;;;;14.13;12.63;;;;;;;0.82;100.00;97177.03;5005125;28;20656;-68
2022/12/06 01:01:28;;;;;;;14.40;12.90;;;;;;;0.76;100.00;97174.06;4984218;28;20811;-73
2022/12/06 01:03:57;;;;;;;14.10;12.70;;;;;;;0.84;100.00;97169.09;5038558;28;20240;-72
2022/12/06 01:06:27;;;;;;;15.00;13.40;;;;;;;0.82;100.00;97160.56;5008461;28;20319;-71
2022/12/06 01:08:55;;;;;;;16.13;12.93;;;;;;;0.88;100.00;97167.03;5042748;28;20199;-72
2022/12/06 01:11:24;;;;;;;13.97;12.13;;;;;;;0.91;100.00;97165.03;5037216;28;20440;-71
2022/12/06 01:13:53;;;;;;;15.47;12.97;;;;;;;0.93;100.00;97164.88;5044820;28;20210;-72
2022/12/06 01:16:22;;;;;;;14.17;12.77;;;;;;;0.95;100.00;97161.22;4995991;28;22418;-72
2022/12/06 01:18:52;;;;;;;15.50;13.87;;;;;;;0.80;100.00;97157.25;4975605;28;20358;-71
2022/12/06 01:21:21;;;;;;;13.57;12.17;;;;;;;0.75;100.00;97161.97;4963085;28;20709;-72
2022/12/06 01:23:49;;;;;;;14.03;12.53;;;;;;;0.71;100.00;97156.19;5027983;28;20333;-70
2022/12/06 01:26:19;;;;;;;14.07;12.57;;;;;;;0.75;100.00;97160.22;5023398;28;20444;-70
2022/12/06 01:28:46;;;;;;;14.83;13.23;;;;;;;0.69;100.00;97147.66;5016872;28;20210;-71
2022/12/06 01:31:16;;;;;;;14.73;13.20;;;;;;;0.69;100.00;97143.25;5022173;28;20215;-71
2022/12/06 01:33:44;;;;;;;14.37;12.87;;;;;;;0.75;100.00;97135.91;5004751;28;20235;-71
2022/12/06 01:36:16;;;;;;;14.87;13.27;;;;;;;0.75;100.00;97134.13;4969541;28;20310;-70
2022/12/06 01:38:43;;;;;;;14.73;13.07;;;;;;;0.68;100.00;97140.78;5024310;28;20550;-72
2022/12/06 01:41:11;;;;;;;15.30;13.20;;;;;;;0.57;100.00;97134.66;4989942;28;20878;-69
2022/12/06 01:43:41;;;;;;;15.10;13.50;;;;;;;0.50;100.00;97132.66;5016006;28;20203;-73
2022/12/06 01:46:22;;;;;;;16.07;13.97;;;;;;;0.49;100.00;97131.00;4994789;28;20255;-69
2022/12/06 01:48:55;;;;;;;13.80;12.40;;;;;;;0.49;100.00;97125.78;5021488;28;20310;-70
2022/12/06 01:51:23;;;;;;;15.83;14.00;;;;;;;0.49;100.00;97123.19;4953003;28;20822;-70
2022/12/06 01:53:52;;;;;;;16.70;13.67;;;;;;;0.36;100.00;97120.72;5015646;28;20212;-71
2022/12/06 01:56:21;;;;;;;15.67;13.80;;;;;;;0.38;100.00;97134.44;5024648;28;20338;-72
2022/12/06 01:58:51;;;;;;;15.50;12.80;;;;;;;0.36;100.00;97129.34;5027354;28;20223;-70
2022/12/06 02:01:18;;;;;;;15.80;13.77;;;;;;;0.34;100.00;97128.63;5021628;28;20417;-72
2022/12/06 02:03:48;;;;;;;14.70;12.73;;;;;;;0.27;100.00;97120.50;5017241;28;20567;-70
2022/12/06 02:06:16;;;;;;;15.13;13.50;;;;;;;0.14;100.00;97119.78;4946167;28;20876;-70
2022/12/06 02:08:44;;;;;;;15.00;13.37;;;;;;;0.17;100.00;97129.97;5025384;28;20211;-71
2022/12/06 02:11:12;;;;;;;14.67;13.20;;;;;;;0.13;100.00;97124.19;5023935;28;20603;-70
2022/12/06 02:13:40;;;;;;;15.93;14.23;;;;;;;0.13;100.00;97128.53;5000179;28;20215;-70
2022/12/06 02:16:26;;;;;;;13.77;12.40;;;;;;;0.21;100.00;97123.59;5019890;28;20230;-70
2022/12/06 02:18:58;;;;;;;15.47;13.83;;;;;;;0.23;100.00;97121.69;5018720;28;20226;-69
2022/12/06 02:21:32;;;;;;;15.23;13.63;;;;;;;0.28;100.00;97129.97;4993872;28;21074;-71
2022/12/06 02:24:39;;;;;;;16.73;13.20;;;;;;;0.33;100.00;97129.59;4968921;28;20733;-69
2022/12/06 02:27:26;;;;;;;14.37;12.80;;;;;;;0.36;100.00;97118.09;4962705;28;20368;-70
2022/12/06 02:30:17;;;;;;;15.77;13.67;;;;;;;0.39;100.00;97118.69;4965740;28;20631;-69
2022/12/06 02:32:50;;;;;;;15.30;13.43;;;;;;;0.43;100.00;97116.66;5011278;28;20211;-71
2022/12/06 02:35:28;;;;;;;15.77;14.17;;;;;;;0.51;100.00;97122.09;5001202;28;20207;-71
2022/12/06 02:37:58;;;;;;;15.53;13.40;;;;;;;0.59;100.00;97128.50;4951109;28;20706;-70
2022/12/06 02:40:31;;;;;;;15.83;13.77;;;;;;;0.62;100.00;97123.03;5023900;28;20627;-70
2022/12/06 02:43:02;;;;;;;15.70;14.00;;;;;;;0.68;100.00;97125.97;4998610;28;20536;-70
2022/12/06 02:45:32;;;;;;;15.90;14.20;;;;;;;0.75;100.00;97125.47;5025636;28;20243;-70
2022/12/06 02:48:02;;;;;;;15.90;13.27;;;;;;;0.75;100.00;97118.47;5026593;28;20493;-72
2022/12/06 02:50:32;;;;;;;17.17;14.23;;;;;;;0.80;100.00;97129.38;5002031;28;20216;-68
2022/12/06 02:53:02;;;;;;;15.63;13.93;;;;;;;0.82;100.00;97124.84;4975392;28;20231;-71
2022/12/06 02:55:30;;;;;;;15.97;14.20;;;;;;;0.85;100.00;97124.59;4968167;28;20227;-68
2022/12/06 02:57:58;;;;;;;15.97;14.27;;;;;;;0.76;100.00;97117.53;5009084;28;20199;-72
2022/12/06 03:00:38;;;;;;;19.13;17.08;;;;;;;0.78;100.00;97112.19;5025913;28;20459;-70
2022/12/06 03:03:28;;;;;;;16.23;14.53;;;;;;;0.88;100.00;97109.66;5024764;28;20698;-70
2022/12/06 03:06:39;;;;;;;18.27;15.33;;;;;;;0.79;100.00;97103.44;4998610;28;20839;-72
2022/12/06 03:09:17;;;;;;;16.90;15.10;;;;;;;0.80;100.00;97095.47;4982279;28;20769;-71
2022/12/06 03:11:50;;;;;;;18.70;15.33;;;;;;;0.79;100.00;97100.81;4980379;28;20698;-72
2022/12/06 03:14:21;;;;;;;16.57;13.87;;;;;;;0.77;100.00;97094.91;5018602;28;20226;-72
2022/12/06 03:16:50;;;;;;;15.10;13.53;;;;;;;0.72;100.00;97101.28;5024808;28;20539;-69
2022/12/06 03:19:21;;;;;;;17.37;14.23;;;;;;;0.65;100.00;97097.53;5028239;28;20305;-71
2022/12/06 03:21:53;;;;;;;14.73;13.07;;;;;;;0.63;100.00;97102.03;4997183;28;20819;-71
2022/12/06 03:24:22;;;;;;;17.92;15.88;;;;;;;0.65;100.00;97104.53;4969565;28;20868;-69
2022/12/06 03:26:53;;;;;;;16.93;13.87;;;;;;;0.46;100.00;97095.56;4991711;28;20239;-71
2022/12/06 03:29:22;;;;;;;20.10;15.03;;;;;;;0.49;100.00;97110.16;4972725;28;21021;-70
2022/12/06 03:31:51;;;;;;;18.10;16.20;;;;;;;0.51;100.00;97101.22;5027018;28;20222;-68
2022/12/06 03:34:22;;;;;;;16.37;14.67;;;;;;;0.59;100.00;97102.44;4997971;28;20483;-70
2022/12/06 03:36:51;;;;;;;17.50;15.70;;;;;;;0.67;100.00;97107.84;5002957;28;20231;-70
2022/12/06 03:39:23;;;;;;;20.47;16.67;;;;;;;0.62;100.00;97100.38;5002821;28;20227;-70
2022/12/06 03:41:53;;;;;;;19.20;17.20;;;;;;;0.64;100.00;97113.31;5031789;28;20622;-69
2022/12/06 03:44:22;;;;;;;17.20;15.43;;;;;;;0.66;100.00;97104.41;4983473;28;20802;-70
2022/12/06 03:46:52;;;;;;;16.07;14.33;;;;;;;0.73;100.00;97104.75;5021703;28;20228;-69
2022/12/06 03:49:26;;;;;;;15.57;13.80;;;;;;;0.79;100.00;97111.25;5011933;28;20666;-70
2022/12/06 03:51:54;;;;;;;15.57;13.97;;;;;;;0.80;100.00;97108.50;5026257;28;20215;-72
2022/12/06 03:54:21;;;;;;;15.40;13.77;;;;;;;0.85;100.00;97111.56;5001396;28;20212;-71
2022/12/06 03:56:50;;;;;;;20.65;18.75;;;;;;;0.91;100.00;97107.63;5023381;28;20442;-70
2022/12/06 03:59:17;;;;;;;18.93;16.93;;;;;;;0.96;100.00;97107.28;4972093;28;20888;-72
2022/12/06 04:01:45;;;;;;;16.67;14.90;;;;;;;0.96;100.00;97108.09;5009536;28;20208;-70
2022/12/06 04:04:12;;;;;;;17.70;15.83;;;;;;;0.90;100.00;97108.59;5024303;28;20306;-70
2022/12/06 04:06:41;;;;;;;17.73;15.03;;;;;;;0.86;100.00;97100.16;4996446;28;20638;-72
2022/12/06 04:11:55;;;;;;;16.17;14.07;;;;;;;0.59;100.00;97107.63;5009611;28;20212;-70
2022/12/06 04:14:22;;;;;;;13.80;12.37;;;;;;;0.52;100.00;97109.91;5022808;28;20204;-73
2022/12/06 04:19:35;;;;;;;14.67;13.13;;;;;;;0.48;100.00;97106.69;5030360;28;20223;-71
2022/12/06 04:24:50;;;;;;;16.23;14.63;;;;;;;0.57;100.00;97090.34;5023241;28;20209;-69
2022/12/06 04:38:39;;;;;;;18.23;15.17;;;;;;;0.74;100.00;97095.97;5011315;28;20223;-73
2022/12/06 04:41:07;;;;;;;18.10;16.30;;;;;;;0.69;100.00;97087.69;5011592;28;21794;-70
2022/12/06 04:43:43;;;;;;;17.97;16.03;;;;;;;0.67;100.00;97086.97;5035769;28;20207;-71
2022/12/06 04:46:14;;;;;;;17.90;15.43;;;;;;;0.60;100.00;97088.44;4996731;28;20714;-70
2022/12/06 04:48:47;;;;;;;15.07;13.57;;;;;;;0.69;100.00;97083.28;5025459;28;20864;-70
2022/12/06 04:51:15;;;;;;;16.53;14.83;;;;;;;0.67;100.00;97085.19;5030206;28;20208;-72
2022/12/06 04:53:45;;;;;;;18.80;16.73;;;;;;;0.56;100.00;97074.81;5012591;28;20213;-69
2022/12/06 04:56:12;;;;;;;18.40;16.10;;;;;;;0.50;100.00;97077.91;5006087;28;20525;-72
2022/12/06 04:58:40;;;;;;;18.67;16.20;;;;;;;0.40;100.00;97080.41;5029100;28;20594;-71
2022/12/06 05:01:08;;;;;;;20.73;17.43;;;;;;;0.40;100.00;97077.81;5024706;28;20230;-71
2022/12/06 05:03:36;;;;;;;19.13;15.77;;;;;;;0.43;100.00;97073.19;4983376;28;20228;-71
2022/12/06 05:06:10;;;;;;;19.57;15.53;;;;;;;0.38;100.00;97072.72;5025090;28;20475;-71
2022/12/06 05:08:38;;;;;;;18.43;15.67;;;;;;;0.45;100.00;97069.63;5001471;28;20437;-70
2022/12/06 05:11:07;;;;;;;17.40;15.57;;;;;;;0.49;100.00;97071.84;5025491;28;20203;-71
2022/12/06 05:13:35;;;;;;;19.03;15.27;;;;;;;0.53;100.00;97072.44;4993620;28;20644;-69
2022/12/06 05:16:05;;;;;;;15.83;14.17;;;;;;;0.50;100.00;97068.28;5025870;28;20230;-70
2022/12/06 05:18:33;;;;;;;19.33;15.83;;;;;;;0.46;100.00;97069.50;4976098;28;20212;-70
2022/12/06 05:21:02;;;;;;;16.33;14.10;;;;;;;0.45;100.00;97067.84;5024894;28;20226;-69
2022/12/06 05:23:30;;;;;;;17.53;14.47;;;;;;;0.44;100.00;97071.41;4978400;28;20199;-67
2022/12/06 05:25:59;;;;;;;17.83;14.63;;;;;;;0.49;100.00;97065.81;5022321;28;20231;-70
2022/12/06 05:28:29;;;;;;;19.00;13.63;;;;;;;0.42;100.00;97068.94;5002111;28;20710;-70
2022/12/06 05:30:57;;;;;;;18.77;15.90;;;;;;;0.35;100.00;97059.91;4995977;28;20423;-69
2022/12/06 05:33:25;;;;;;;18.03;15.53;;;;;;;0.33;100.00;97063.63;4975888;28;20420;-70
2022/12/06 05:35:53;;;;;;;16.80;14.97;;;;;;;0.36;100.00;97066.78;4964168;28;20222;-68
2022/12/06 05:38:21;;;;;;;21.53;16.77;;;;;;;0.41;100.00;97063.81;5022606;28;20203;-69
2022/12/06 05:40:49;;;;;;;17.70;14.90;;;;;;;0.36;100.00;97065.97;5027386;28;20227;-72
2022/12/06 05:43:17;;;;;;;16.43;14.57;;;;;;;0.36;100.00;97069.41;5025913;28;20607;-70
2022/12/06 05:45:46;;;;;;;17.00;15.10;;;;;;;0.33;100.00;97074.84;5022958;28;20219;-71
2022/12/06 05:48:13;;;;;;;19.27;15.43;;;;;;;0.39;100.00;97063.97;5016867;28;20235;-70
2022/12/06 05:50:41;;;;;;;19.40;14.20;;;;;;;0.48;100.00;97072.00;4977504;28;20707;-70
2022/12/06 05:53:12;;;;;;;17.47;15.47;;;;;;;0.45;100.00;97065.22;5023273;28;20574;-70
2022/12/06 05:55:39;;;;;;;18.17;15.83;;;;;;;0.40;100.00;97064.78;5023023;28;20654;-72
2022/12/06 05:58:07;;;;;;;19.70;15.17;;;;;;;0.38;100.00;97064.91;5026239;28;20204;-70
2022/12/06 06:00:35;;;;;;;20.60;15.67;;;;;;;0.39;100.00;97065.72;5021578;28;20364;-73
2022/12/06 06:03:04;;;;;;;24.42;21.80;;;;;;;0.31;100.00;97058.50;5023707;28;20440;-72
2022/12/06 06:05:33;;;;;;;22.10;16.97;;;;;;;0.38;100.00;97067.53;5025419;28;20248;-71
2022/12/06 06:08:00;;;;;;;21.53;17.17;;;;;;;0.35;100.00;97067.75;4949759;28;20215;-70
2022/12/06 06:10:28;;;;;;;19.20;16.30;;;;;;;0.39;100.00;97058.75;5011938;28;20215;-71
2022/12/06 06:12:55;;;;;;;19.43;15.40;;;;;;;0.37;100.00;97067.63;5029589;28;20211;-71
2022/12/06 06:15:23;;;;;;;19.47;16.87;;;;;;;0.35;100.00;97061.72;4996623;28;20204;-69
2022/12/06 06:17:51;;;;;;;21.50;16.07;;;;;;;0.35;100.00;97054.72;5029729;28;20457;-69
2022/12/06 06:20:20;;;;;;;19.20;16.10;;;;;;;0.38;100.00;97056.25;5022824;28;20230;-70
2022/12/06 06:22:47;;;;;;;21.80;16.83;;;;;;;0.35;100.00;97059.91;4982272;28;20215;-72
2022/12/06 06:25:15;;;;;;;21.53;16.60;;;;;;;0.39;100.00;97057.91;5025681;28;20203;-71
2022/12/06 06:27:43;;;;;;;18.83;15.43;;;;;;;0.45;100.00;97070.44;5026016;28;20602;-70
2022/12/06 06:30:12;;;;;;;18.63;16.63;;;;;;;0.45;100.00;97073.06;5026117;28;20211;-70
2022/12/06 06:32:40;;;;;;;19.30;16.00;;;;;;;0.38;100.00;97066.69;4983304;28;20325;-69
2022/12/06 06:35:08;;;;;;;20.47;16.37;;;;;;;0.34;100.00;97049.63;5020555;28;20547;-69
2022/12/06 06:37:37;;;;;;;19.83;16.63;;;;;;;0.39;100.00;97058.75;5020060;28;20201;-70
2022/12/06 06:40:06;;;;;;;20.60;16.90;;;;;;;0.33;100.00;97067.03;4981290;28;20236;-69
2022/12/06 06:42:33;;;;;;;22.13;17.10;;;;;;;0.35;100.00;97069.53;5019162;28;20317;-71
2022/12/06 06:45:01;;;;;;;19.63;16.30;;;;;;;0.34;100.00;97065.28;5001256;28;20207;-72
2022/12/06 06:47:30;;;;;;;22.27;16.83;;;;;;;0.34;100.00;97060.88;5006592;28;20456;-71
2022/12/06 06:49:59;;;;;;;23.53;17.43;;;;;;;0.34;100.00;97060.88;5027559;28;20606;-71
2022/12/06 06:52:27;;;;;;;22.63;17.07;;;;;;;0.36;100.00;97063.38;5018797;28;20366;-72
2022/12/06 06:54:56;;;;;;;18.80;16.80;;;;;;;0.36;100.00;97061.56;4984543;28;20677;-70
2022/12/06 06:57:24;;;;;;;20.53;16.97;;;;;;;0.43;100.00;97070.59;5021186;28;20207;-69
2022/12/06 06:59:52;;;;;;;19.37;16.97;;;;;;;0.56;100.00;97064.38;5028532;28;20200;-70
2022/12/06 07:02:19;;;;;;;23.57;18.27;;;;;;;0.55;100.00;97063.53;5004553;28;20238;-70
2022/12/06 07:04:48;;;;;;;21.80;17.60;;;;;;;0.53;100.00;97060.22;5026438;28;20203;-70
2022/12/06 07:07:16;;;;;;;21.60;17.10;;;;;;;0.51;100.00;97058.72;5021158;28;20223;-70
2022/12/06 07:09:48;;;;;;;20.27;15.87;;;;;;;0.51;100.00;97064.72;4982219;28;20641;-72
2022/12/06 07:12:17;;;;;;;18.77;16.50;;;;;;;0.42;100.00;97063.72;5024092;28;20199;-71
2022/12/06 07:14:44;;;;;;;21.43;16.63;;;;;;;0.41;100.00;97063.81;4999615;28;20785;-68
2022/12/06 07:17:12;;;;;;;21.50;16.30;;;;;;;0.46;100.00;97064.28;5000995;28;20227;-68
2022/12/06 07:19:40;;;;;;;22.03;17.93;;;;;;;0.48;100.00;97064.97;5023520;28;20239;-68
2022/12/06 07:22:09;;;;;;;20.93;17.37;;;;;;;0.54;100.00;97056.66;5024667;28;20215;-68
2022/12/06 07:24:36;;;;;;;21.47;18.70;;;;;;;0.46;100.00;97058.25;4981310;28;20586;-73
2022/12/06 07:27:10;;;;;;;20.87;17.83;;;;;;;0.53;100.00;97070.66;5025960;28;20314;-71
2022/12/06 07:29:39;;;;;;;19.43;17.27;;;;;;;0.72;100.00;97061.34;5024915;28;20417;-69
2022/12/06 07:32:07;;;;;;;20.17;17.20;;;;;;;0.59;100.00;97060.72;5022995;28;20474;-68
2022/12/06 07:34:35;;;;;;;21.57;18.27;;;;;;;0.65;100.00;97062.81;4981577;28;20869;-68
2022/12/06 07:37:05;;;;;;;18.73;16.00;;;;;;;0.71;100.00;97070.13;5020095;28;20228;-68
2022/12/06 07:39:32;;;;;;;16.77;14.90;;;;;;;0.62;100.00;97058.66;5028653;28;20456;-69
2022/12/06 07:45:03;;;;;;;17.40;15.23;;;;;;;0.56;100.00;97062.56;4942164;28;21001;-69
2022/12/06 07:47:34;;;;;;;20.27;15.70;;;;;;;0.65;100.00;97058.41;5028875;28;20203;-70
2022/12/06 07:50:02;;;;;;;16.80;15.00;;;;;;;0.77;100.00;97063.59;4999195;28;20220;-70
2022/12/06 07:52:31;;;;;;;18.00;15.30;;;;;;;0.76;100.00;97052.31;5023718;28;20235;-71
2022/12/06 07:54:59;;;;;;;18.17;14.83;;;;;;;0.86;100.00;97057.63;5028816;28;20531;-72
2022/12/06 07:57:27;;;;;;;18.20;15.27;;;;;;;0.89;100.00;97048.69;5028453;28;20725;-67
2022/12/06 07:59:56;;;;;;;17.40;15.47;;;;;;;0.81;100.00;97052.78;4973503;28;20722;-68
2022/12/06 08:02:26;;;;;;;18.07;16.17;;;;;;;0.88;100.00;97049.66;5028983;28;20281;-71
2022/12/06 08:04:54;;;;;;;16.47;14.47;;;;;;;1.02;100.00;97054.59;4996142;28;20218;-70
2022/12/06 08:07:22;;;;;;;19.00;16.30;;;;;;;1.06;100.00;97053.38;5001173;28;20237;-69
2022/12/06 08:09:51;;;;;;;15.67;14.03;;;;;;;0.96;100.00;97057.69;5031922;28;20215;-69
2022/12/06 08:12:19;;;;;;;19.33;15.23;;;;;;;0.96;100.00;97052.47;5031068;28;20199;-70
2022/12/06 08:14:47;;;;;;;17.20;15.23;;;;;;;0.95;100.00;97054.25;4977323;28;20686;-69
2022/12/06 08:17:16;;;;;;;20.50;16.63;;;;;;;0.92;100.00;97053.66;5025974;28;20215;-70
2022/12/06 08:19:45;;;;;;;17.80;14.73;;;;;;;1.05;100.00;97049.09;5027802;28;20621;-68
2022/12/06 08:22:13;;;;;;;16.20;14.50;;;;;;;1.00;100.00;97048.66;4996649;28;20908;-70
2022/12/06 08:24:41;;;;;;;16.10;14.40;;;;;;;1.11;100.00;97053.81;5025775;28;20289;-68
2022/12/06 08:27:08;;;;;;;15.13;13.63;;;;;;;1.25;100.00;97051.81;5027911;28;20227;-71
2022/12/06 08:29:36;;;;;;;16.40;14.20;;;;;;;1.32;100.00;97060.78;5032099;28;20219;-69
2022/12/06 08:32:05;;;;;;;18.03;16.17;;;;;;;1.30;100.00;97047.88;4981082;28;20509;-70
2022/12/06 08:34:34;;;;;;;18.23;14.57;;;;;;;1.15;100.00;97057.00;5029169;28;20507;-69
2022/12/06 08:37:02;;;;;;;18.87;16.17;;;;;;;1.19;100.00;97054.94;5001960;28;20853;-70
2022/12/06 08:39:30;;;;;;;19.67;16.27;;;;;;;1.15;100.00;97052.59;5028561;28;20658;-68
2022/12/06 08:41:58;;;;;;;19.73;15.70;;;;;;;1.12;100.00;97050.25;5028685;28;20845;-73
2022/12/06 08:44:27;;;;;;;15.33;13.73;;;;;;;1.12;100.00;97057.22;5030519;28;20208;-70
2022/12/06 08:46:55;;;;;;;20.55;17.00;;;;;;;1.12;100.00;97060.69;4983453;28;20951;-70
2022/12/06 08:49:24;;;;;;;19.27;15.30;;;;;;;1.18;100.00;97055.91;5024614;28;20208;-71
2022/12/06 08:51:56;;;;;;;17.83;14.73;;;;;;;1.25;100.00;97054.44;5002773;28;20205;-70
2022/12/06 08:54:24;;;;;;;18.80;15.23;;;;;;;1.23;100.00;97053.72;5030557;28;20203;-70
2022/12/06 08:56:52;;;;;;;17.37;15.57;;;;;;;1.34;100.00;97058.06;5025395;28;20231;-70
2022/12/06 08:59:20;;;;;;;20.95;18.92;;;;;;;1.48;100.00;97055.09;5012551;28;20828;-71
2022/12/06 09:01:48;;;;;;;16.70;14.93;;;;;;;1.41;100.00;97048.75;4979730;28;20232;-71
2022/12/06 09:04:17;;;;;;;16.33;14.73;;;;;;;1.39;100.00;97048.91;5022337;28;20302;-70
2022/12/06 09:06:45;;;;;;;15.37;13.80;;;;;;;1.44;100.00;97046.72;5014934;28;20769;-69
2022/12/06 09:09:15;;;;;;;16.00;14.43;;;;;;;1.42;100.00;97055.63;5011302;28;20330;-71
2022/12/06 09:11:45;;;;;;;14.93;13.53;;;;;;;1.62;100.00;97056.53;5021112;28;20219;-72
2022/12/06 09:14:14;;;;;;;16.00;14.40;;;;;;;1.58;100.00;97058.59;5022988;28;20778;-68
2022/12/06 09:16:48;;;;;;;14.67;13.27;;;;;;;1.68;100.00;97049.97;4977274;28;20326;-70
2022/12/06 09:19:16;;;;;;;16.23;14.63;;;;;;;1.69;100.00;97052.44;5025160;28;20204;-70
2022/12/06 09:21:45;;;;;;;15.77;14.33;;;;;;;1.72;100.00;97052.22;5027251;28;20224;-69
2022/12/06 09:24:16;;;;;;;19.45;17.55;;;;;;;1.70;100.00;97050.69;5001261;28;20612;-69
2022/12/06 09:26:44;;;;;;;16.60;14.93;;;;;;;1.64;100.00;97043.38;5025879;28;20608;-70
2022/12/06 09:29:12;;;;;;;16.30;14.70;;;;;;;1.46;100.00;97045.75;5025605;28;20783;-71
2022/12/06 09:31:42;;;;;;;15.80;14.17;;;;;;;1.47;100.00;97047.41;5015975;28;20213;-69
2022/12/06 09:34:12;;;;;;;14.60;13.10;;;;;;;1.46;100.00;97048.38;5003342;28;20219;-69
2022/12/06 09:36:44;;;;;;;15.63;14.10;;;;;;;1.54;100.00;97046.78;5023217;28;20254;-72
2022/12/06 09:39:16;;;;;;;15.87;13.07;;;;;;;1.53;100.00;97047.72;5001122;28;20213;-72
2022/12/06 09:42:06;;;;;;;16.20;14.60;;;;;;;1.74;100.00;97046.84;5017128;28;20541;-70
2022/12/06 09:44:54;;;;;;;17.87;14.93;;;;;;;1.75;100.00;97048.50;4990434;28;20358;-68
2022/12/06 09:47:32;;;;;;;16.10;14.60;;;;;;;1.78;100.00;97042.19;4983937;28;23117;-69
2022/12/06 09:50:08;;;;;;;15.07;13.47;;;;;;;1.85;100.00;97051.16;4972293;28;20846;-69
2022/12/06 09:52:55;;;;;;;15.97;14.20;;;;;;;1.77;100.00;97046.56;5015349;28;20214;-69
2022/12/06 09:55:38;;;;;;;15.73;14.13;;;;;;;1.76;100.00;97044.09;5026686;28;20212;-69
2022/12/06 09:58:11;;;;;;;14.87;13.37;;;;;;;1.82;100.00;97047.00;5024324;28;20964;-70
2022/12/06 10:00:43;;;;;;;14.33;12.93;;;;;;;1.83;100.00;97038.19;5007527;28;20582;-69
2022/12/06 10:03:35;;;;;;;15.33;12.97;;;;;;;1.78;100.00;97036.97;5031081;28;20254;-69
2022/12/06 10:06:08;;;;;;;15.97;14.30;;;;;;;1.77;100.00;97037.94;4974193;28;20231;-68
2022/12/06 10:08:50;;;;;;;14.77;13.30;;;;;;;1.78;100.00;97029.94;5024059;28;20207;-68
2022/12/06 10:11:30;;;;;;;14.60;13.10;;;;;;;1.81;100.00;97037.50;5016071;28;20554;-70
2022/12/06 10:14:04;;;;;;;14.60;13.10;;;;;;;1.87;100.00;97033.56;5025863;28;20191;-68
2022/12/06 10:16:43;;;;;;;15.10;13.60;;;;;;;1.80;100.00;97025.41;4997566;28;20235;-68
2022/12/06 10:19:20;;;;;;;15.10;13.67;;;;;;;1.79;100.00;97020.34;5030932;28;20207;-69
2022/12/06 10:21:56;;;;;;;14.47;13.07;;;;;;;1.76;100.00;97024.03;4969952;28;20242;-70
2022/12/06 10:24:36;;;;;;;15.27;13.87;;;;;;;1.78;100.00;97022.09;5028432;28;20649;-70
2022/12/06 10:27:09;;;;;;;13.63;12.33;;;;;;;1.83;100.00;97019.91;5029914;28;20230;-68
2022/12/06 10:29:43;;;;;;;14.43;12.63;;;;;;;1.79;100.00;97015.09;5027716;28;20382;-70
2022/12/06 10:32:16;;;;;;;14.80;13.27;;;;;;;1.80;100.00;97011.53;4991299;28;20214;-69
2022/12/06 10:34:51;;;;;;;14.23;12.83;;;;;;;1.90;100.00;97012.38;5023064;28;20207;-68
2022/12/06 10:37:29;;;;;;;17.60;13.80;;;;;;;1.80;100.00;97008.91;4975959;28;20227;-69
2022/12/06 10:40:01;;;;;;;16.00;14.17;;;;;;;1.93;100.00;97001.66;5023934;28;20382;-70
2022/12/06 10:42:35;;;;;;;16.90;14.50;;;;;;;2.00;100.00;97000.16;4994323;28;20502;-71
2022/12/06 10:47:02;;;;;;;16.33;14.67;;;;;;;2.06;100.00;97000.56;5024353;28;20418;-72
2022/12/06 10:47:57;;;;;;;16.57;14.80;;;;;;;2.02;100.00;97006.06;5000133;28;20459;-70
2022/12/06 10:50:28;;;;;;;15.57;13.97;;;;;;;2.09;100.00;97005.56;5020982;28;20211;-70
2022/12/06 10:53:01;;;;;;;16.47;14.77;;;;;;;2.06;100.00;96992.72;4962783;28;20334;-72
2022/12/06 10:55:32;;;;;;;16.40;14.80;;;;;;;2.10;100.00;96996.75;5028427;28;20238;-70
2022/12/06 10:58:07;;;;;;;16.53;14.93;;;;;;;2.13;100.00;96988.66;4980787;28;20211;-72
2022/12/06 11:00:39;;;;;;;15.60;14.00;;;;;;;2.14;100.00;96998.94;5027429;28;20441;-71
2022/12/06 11:03:13;;;;;;;15.53;13.93;;;;;;;2.14;100.00;96995.53;4998129;28;20871;-70
2022/12/06 11:05:43;;;;;;;14.63;13.13;;;;;;;2.31;100.00;96997.44;5016357;28;20812;-70
2022/12/06 11:08:14;;;;;;;15.00;13.60;;;;;;;2.24;100.00;96998.97;4975031;28;20659;-69
2022/12/06 11:10:44;;;;;;;15.20;13.70;;;;;;;2.35;100.00;97000.63;5022482;28;20208;-73
2022/12/06 11:13:18;;;;;;;15.03;13.43;;;;;;;2.31;100.00;97000.06;4999325;28;20211;-72
2022/12/06 11:15:49;;;;;;;15.23;13.82;;;;;;;2.46;100.00;96992.66;5024047;28;20965;-71
2022/12/06 11:18:18;;;;;;;15.37;13.57;;;;;;;2.49;100.00;96986.31;5006098;28;20758;-70
2022/12/06 11:20:49;;;;;;;13.47;12.17;;;;;;;2.55;100.00;96982.31;5021944;28;20946;-70
2022/12/06 11:23:21;;;;;;;13.77;12.47;;;;;;;2.43;100.00;96985.06;4969959;28;20216;-69
2022/12/06 11:26:07;;;;;;;16.55;14.85;;;;;;;2.72;100.00;96975.56;5020500;28;20824;-69
2022/12/06 11:28:39;;;;;;;13.27;12.07;;;;;;;2.37;100.00;96974.34;4996456;28;21046;-72
2022/12/06 11:31:14;;;;;;;13.43;12.17;;;;;;;2.60;100.00;96967.88;5028006;28;20210;-72
2022/12/06 11:33:42;;;;;;;13.17;11.97;;;;;;;2.76;100.00;96974.31;5021018;28;20242;-70
2022/12/06 11:36:10;;;;;;;12.13;11.00;;;;;;;2.72;100.00;96960.69;4994668;28;20730;-70
2022/12/06 11:38:40;;;;;;;11.57;10.43;;;;;;;2.49;100.00;96962.78;4978664;28;20211;-69
2022/12/06 11:41:11;;;;;;;12.63;11.30;;;;;;;2.41;100.00;96966.09;5019062;28;20207;-69
2022/12/06 11:43:40;;;;;;;12.37;11.17;;;;;;;2.37;100.00;96962.09;5000314;28;20236;-70
2022/12/06 11:46:11;;;;;;;13.00;11.63;;;;;;;2.53;100.00;96961.53;5021246;28;20224;-69
2022/12/06 11:48:38;;;;;;;11.67;10.63;;;;;;;2.47;100.00;96954.25;5024767;28;20832;-70
2022/12/06 11:51:13;;;;;;;11.13;10.13;;;;;;;2.47;100.00;96959.50;4996667;28;20215;-71
2022/12/06 11:53:44;;;;;;;11.63;10.53;;;;;;;2.39;100.00;96954.09;4981823;28;20314;-70
2022/12/06 11:56:25;;;;;;;12.27;11.05;;;;;;;2.28;100.00;96948.06;5020537;28;20449;-70